sensor_id;sensor_type;location;lat;lon;timestamp;temperature;humidity
38860;DHT22;24609;48.316;16.174;2022-12-11T00:01:33;2.80;56.80
38860;DHT22;24609;48.316;16.174;2022-12-11T00:03:59;2.80;48.40
38860;DHT22;24609;48.316;16.174;2022-12-11T00:06:25;2.80;45.30
38860;DHT22;24609;48.316;16.174;2022-12-11T00:08:51;2.80;25.30
38860;DHT22;24609;48.316;16.174;2022-12-11T00:11:18;2.80;12.30
38860;DHT22;24609;48.316;16.174;2022-12-11T00:13:44;2.70;1.00
38860;DHT22;24609;48.316;16.174;2022-12-11T00:16:10;2.70;1.00
38860;DHT22;24609;48.316;16.174;2022-12-11T00:18:35;2.70;1.00
38860;DHT22;24609;48.316;16.174;2022-12-11T00:21:02;2.60;1.00
38860;DHT22;24609;48.316;16.174;2022-12-11T00:23:28;2.60;1.00
38860;DHT22;24609;48.316;16.174;2022-12-11T00:25:54;2.60;1.00
38860;DHT22;24609;48.316;16.174;2022-12-11T00:28:20;2.60;1.00
38860;DHT22;24609;48.316;16.174;2022-12-11T00:30:46;2.50;1.00
38860;DHT22;24609;48.316;16.174;2022-12-11T00:33:13;2.50;1.00
38860;DHT22;24609;48.316;16.174;2022-12-11T00:35:44;2.50;1.00
38860;DHT22;24609;48.316;16.174;2022-12-11T00:38:19;2.40;1.00
38860;DHT22;24609;48.316;16.174;2022-12-11T00:40:46;2.40;1.00
38860;DHT22;24609;48.316;16.174;2022-12-11T00:43:12;2.40;1.00
38860;DHT22;24609;48.316;16.174;2022-12-11T00:45:43;2.40;1.00
38860;DHT22;24609;48.316;16.174;2022-12-11T00:48:10;2.40;1.00
38860;DHT22;24609;48.316;16.174;2022-12-11T00:50:36;2.40;1.00
38860;DHT22;24609;48.316;16.174;2022-12-11T00:53:03;2.40;1.00
38860;DHT22;24609;48.316;16.174;2022-12-11T00:55:29;2.40;1.00
38860;DHT22;24609;48.316;16.174;2022-12-11T00:57:56;2.40;1.00
38860;DHT22;24609;48.316;16.174;2022-12-11T01:00:23;2.40;1.00
38860;DHT22;24609;48.316;16.174;2022-12-11T01:02:49;2.40;1.00
38860;DHT22;24609;48.316;16.174;2022-12-11T01:05:15;2.40;1.00
38860;DHT22;24609;48.316;16.174;2022-12-11T01:07:41;2.40;1.00
38860;DHT22;24609;48.316;16.174;2022-12-11T01:10:07;2.40;1.00
38860;DHT22;24609;48.316;16.174;2022-12-11T01:12:55;2.40;1.00
38860;DHT22;24609;48.316;16.174;2022-12-11T01:15:28;2.40;1.00
38860;DHT22;24609;48.316;16.174;2022-12-11T01:17:55;2.30;1.00
38860;DHT22;24609;48.316;16.174;2022-12-11T01:20:22;2.30;1.00
38860;DHT22;24609;48.316;16.174;2022-12-11T01:22:53;2.30;1.00
38860;DHT22;24609;48.316;16.174;2022-12-11T01:25:19;2.30;1.00
38860;DHT22;24609;48.316;16.174;2022-12-11T01:27:45;2.30;1.00
38860;DHT22;24609;48.316;16.174;2022-12-11T01:30:11;2.30;1.00
38860;DHT22;24609;48.316;16.174;2022-12-11T01:32:37;2.30;1.00
38860;DHT22;24609;48.316;16.174;2022-12-11T01:35:05;2.30;1.00
38860;DHT22;24609;48.316;16.174;2022-12-11T01:37:31;2.30;1.00
38860;DHT22;24609;48.316;16.174;2022-12-11T01:39:56;2.20;1.00
38860;DHT22;24609;48.316;16.174;2022-12-11T01:42:22;2.20;1.00
38860;DHT22;24609;48.316;16.174;2022-12-11T01:47:15;2.20;1.00
38860;DHT22;24609;48.316;16.174;2022-12-11T01:49:41;2.20;1.00
38860;DHT22;24609;48.316;16.174;2022-12-11T01:52:15;2.20;1.00
38860;DHT22;24609;48.316;16.174;2022-12-11T01:54:44;2.20;1.00
38860;DHT22;24609;48.316;16.174;2022-12-11T01:57:12;2.20;1.00
38860;DHT22;24609;48.316;16.174;2022-12-11T01:59:43;2.20;1.00
38860;DHT22;24609;48.316;16.174;2022-12-11T02:02:21;2.20;1.00
38860;DHT22;24609;48.316;16.174;2022-12-11T02:04:49;2.10;1.00
38860;DHT22;24609;48.316;16.174;2022-12-11T02:07:14;2.10;1.00
38860;DHT22;24609;48.316;16.174;2022-12-11T02:09:42;2.10;1.00
38860;DHT22;24609;48.316;16.174;2022-12-11T02:17:39;2.10;1.00
38860;DHT22;24609;48.316;16.174;2022-12-11T02:25:44;2.10;1.00
38860;DHT22;24609;48.316;16.174;2022-12-11T02:28:16;2.10;1.00
38860;DHT22;24609;48.316;16.174;2022-12-11T02:30:48;2.10;1.00
38860;DHT22;24609;48.316;16.174;2022-12-11T02:33:15;2.00;1.00
38860;DHT22;24609;48.316;16.174;2022-12-11T02:35:44;2.00;99.90
38860;DHT22;24609;48.316;16.174;2022-12-11T02:38:32;2.00;1.00
38860;DHT22;24609;48.316;16.174;2022-12-11T02:41:00;2.00;1.00
38860;DHT22;24609;48.316;16.174;2022-12-11T02:43:29;2.00;1.00
38860;DHT22;24609;48.316;16.174;2022-12-11T02:45:57;2.00;1.00
38860;DHT22;24609;48.316;16.174;2022-12-11T02:48:23;2.00;99.90
38860;DHT22;24609;48.316;16.174;2022-12-11T02:50:53;2.00;99.90
38860;DHT22;24609;48.316;16.174;2022-12-11T02:53:24;2.00;99.90
38860;DHT22;24609;48.316;16.174;2022-12-11T02:55:51;2.00;99.90
38860;DHT22;24609;48.316;16.174;2022-12-11T02:58:28;1.90;99.90
38860;DHT22;24609;48.316;16.174;2022-12-11T03:00:55;1.90;99.90
38860;DHT22;24609;48.316;16.174;2022-12-11T03:03:22;1.90;99.90
38860;DHT22;24609;48.316;16.174;2022-12-11T03:05:47;1.90;99.90
38860;DHT22;24609;48.316;16.174;2022-12-11T03:08:13;1.80;99.90
38860;DHT22;24609;48.316;16.174;2022-12-11T03:10:42;1.90;99.90
38860;DHT22;24609;48.316;16.174;2022-12-11T03:13:08;1.90;99.90
38860;DHT22;24609;48.316;16.174;2022-12-11T03:18:37;1.80;1.00
38860;DHT22;24609;48.316;16.174;2022-12-11T03:21:17;1.80;1.00
38860;DHT22;24609;48.316;16.174;2022-12-11T03:24:10;1.80;1.00
38860;DHT22;24609;48.316;16.174;2022-12-11T03:26:56;1.80;1.00
38860;DHT22;24609;48.316;16.174;2022-12-11T03:29:28;1.70;1.00
38860;DHT22;24609;48.316;16.174;2022-12-11T03:31:57;1.80;1.00
38860;DHT22;24609;48.316;16.174;2022-12-11T03:34:33;1.80;1.00
38860;DHT22;24609;48.316;16.174;2022-12-11T03:37:02;1.80;1.00
38860;DHT22;24609;48.316;16.174;2022-12-11T03:39:36;1.70;1.00
38860;DHT22;24609;48.316;16.174;2022-12-11T03:42:05;1.80;1.00
38860;DHT22;24609;48.316;16.174;2022-12-11T03:44:34;1.80;1.00
38860;DHT22;24609;48.316;16.174;2022-12-11T03:47:03;1.80;99.90
38860;DHT22;24609;48.316;16.174;2022-12-11T03:49:34;1.80;99.90
38860;DHT22;24609;48.316;16.174;2022-12-11T03:52:02;1.80;99.90
38860;DHT22;24609;48.316;16.174;2022-12-11T03:54:29;1.80;99.90
38860;DHT22;24609;48.316;16.174;2022-12-11T03:56:57;1.90;99.90
38860;DHT22;24609;48.316;16.174;2022-12-11T03:59:23;1.80;99.90
38860;DHT22;24609;48.316;16.174;2022-12-11T04:01:50;1.80;99.90
38860;DHT22;24609;48.316;16.174;2022-12-11T04:04:16;1.80;99.90
38860;DHT22;24609;48.316;16.174;2022-12-11T04:06:42;1.80;99.90
38860;DHT22;24609;48.316;16.174;2022-12-11T04:09:07;1.80;99.90
38860;DHT22;24609;48.316;16.174;2022-12-11T04:11:33;1.80;99.90
38860;DHT22;24609;48.316;16.174;2022-12-11T04:14:12;1.80;99.90
38860;DHT22;24609;48.316;16.174;2022-12-11T04:16:58;1.80;99.90
38860;DHT22;24609;48.316;16.174;2022-12-11T04:19:24;1.80;99.90
38860;DHT22;24609;48.316;16.174;2022-12-11T04:22:13;1.80;99.90
38860;DHT22;24609;48.316;16.174;2022-12-11T04:24:51;1.80;99.90
38860;DHT22;24609;48.316;16.174;2022-12-11T04:27:17;1.80;99.90
38860;DHT22;24609;48.316;16.174;2022-12-11T04:30:07;1.80;99.90
38860;DHT22;24609;48.316;16.174;2022-12-11T04:32:33;1.80;99.90
38860;DHT22;24609;48.316;16.174;2022-12-11T04:34:58;1.80;99.90
38860;DHT22;24609;48.316;16.174;2022-12-11T04:37:25;1.80;99.90
38860;DHT22;24609;48.316;16.174;2022-12-11T04:39:51;1.80;1.00
38860;DHT22;24609;48.316;16.174;2022-12-11T04:42:16;1.70;99.90
38860;DHT22;24609;48.316;16.174;2022-12-11T04:44:42;1.70;1.00
38860;DHT22;24609;48.316;16.174;2022-12-11T04:47:08;1.60;1.00
38860;DHT22;24609;48.316;16.174;2022-12-11T04:49:34;1.50;1.00
38860;DHT22;24609;48.316;16.174;2022-12-11T04:51:59;1.30;30.40
38860;DHT22;24609;48.316;16.174;2022-12-11T04:54:25;1.20;98.80
38860;DHT22;24609;48.316;16.174;2022-12-11T04:56:53;1.20;99.90
38860;DHT22;24609;48.316;16.174;2022-12-11T04:59:18;1.10;99.90
38860;DHT22;24609;48.316;16.174;2022-12-11T05:01:44;1.10;99.90
38860;DHT22;24609;48.316;16.174;2022-12-11T05:04:10;1.00;99.90
38860;DHT22;24609;48.316;16.174;2022-12-11T05:06:35;1.00;99.90
38860;DHT22;24609;48.316;16.174;2022-12-11T05:09:01;1.00;99.90
38860;DHT22;24609;48.316;16.174;2022-12-11T05:11:27;1.00;99.90
38860;DHT22;24609;48.316;16.174;2022-12-11T05:13:53;1.00;99.90
38860;DHT22;24609;48.316;16.174;2022-12-11T05:16:18;1.00;99.90
38860;DHT22;24609;48.316;16.174;2022-12-11T05:18:44;0.90;99.90
38860;DHT22;24609;48.316;16.174;2022-12-11T05:21:13;0.90;99.90
38860;DHT22;24609;48.316;16.174;2022-12-11T05:23:39;0.90;99.90
38860;DHT22;24609;48.316;16.174;2022-12-11T05:26:07;0.90;99.90
38860;DHT22;24609;48.316;16.174;2022-12-11T05:28:36;0.90;99.90
38860;DHT22;24609;48.316;16.174;2022-12-11T05:31:08;1.00;99.90
38860;DHT22;24609;48.316;16.174;2022-12-11T05:33:35;1.00;99.90
38860;DHT22;24609;48.316;16.174;2022-12-11T05:36:01;1.00;99.90
38860;DHT22;24609;48.316;16.174;2022-12-11T05:38:27;1.00;99.90
38860;DHT22;24609;48.316;16.174;2022-12-11T05:41:00;1.10;99.90
38860;DHT22;24609;48.316;16.174;2022-12-11T05:43:28;1.10;99.90
38860;DHT22;24609;48.316;16.174;2022-12-11T05:45:54;1.20;99.90
38860;DHT22;24609;48.316;16.174;2022-12-11T05:48:21;1.20;99.90
38860;DHT22;24609;48.316;16.174;2022-12-11T05:50:57;1.30;28.90
38860;DHT22;24609;48.316;16.174;2022-12-11T05:53:23;1.20;4.10
38860;DHT22;24609;48.316;16.174;2022-12-11T05:55:49;1.30;1.00
38860;DHT22;24609;48.316;16.174;2022-12-11T05:58:14;1.30;1.00
38860;DHT22;24609;48.316;16.174;2022-12-11T06:00:41;1.40;1.00
38860;DHT22;24609;48.316;16.174;2022-12-11T06:03:07;1.40;1.00
38860;DHT22;24609;48.316;16.174;2022-12-11T06:05:37;1.30;1.00
38860;DHT22;24609;48.316;16.174;2022-12-11T06:08:03;1.30;1.00
38860;DHT22;24609;48.316;16.174;2022-12-11T06:10:29;1.40;1.00
38860;DHT22;24609;48.316;16.174;2022-12-11T06:12:55;1.40;1.00
38860;DHT22;24609;48.316;16.174;2022-12-11T06:15:20;1.40;1.00
38860;DHT22;24609;48.316;16.174;2022-12-11T06:17:46;1.40;1.00
38860;DHT22;24609;48.316;16.174;2022-12-11T06:20:12;1.30;1.00
38860;DHT22;24609;48.316;16.174;2022-12-11T06:22:38;1.40;1.00
38860;DHT22;24609;48.316;16.174;2022-12-11T06:25:03;1.30;1.00
38860;DHT22;24609;48.316;16.174;2022-12-11T06:27:29;1.30;1.00
38860;DHT22;24609;48.316;16.174;2022-12-11T06:29:55;1.30;1.00
38860;DHT22;24609;48.316;16.174;2022-12-11T06:32:21;1.30;1.00
38860;DHT22;24609;48.316;16.174;2022-12-11T06:34:47;1.30;99.90
38860;DHT22;24609;48.316;16.174;2022-12-11T06:37:13;1.30;99.90
38860;DHT22;24609;48.316;16.174;2022-12-11T06:39:39;1.30;1.00
38860;DHT22;24609;48.316;16.174;2022-12-11T06:42:05;1.20;99.90
38860;DHT22;24609;48.316;16.174;2022-12-11T06:44:31;1.30;99.90
38860;DHT22;24609;48.316;16.174;2022-12-11T06:46:56;1.30;99.90
38860;DHT22;24609;48.316;16.174;2022-12-11T06:49:22;1.30;99.90
38860;DHT22;24609;48.316;16.174;2022-12-11T06:51:48;1.20;99.90
38860;DHT22;24609;48.316;16.174;2022-12-11T06:54:13;1.20;99.90
38860;DHT22;24609;48.316;16.174;2022-12-11T06:56:39;1.20;99.90
38860;DHT22;24609;48.316;16.174;2022-12-11T06:59:05;1.20;99.90
38860;DHT22;24609;48.316;16.174;2022-12-11T07:01:31;1.20;99.90
38860;DHT22;24609;48.316;16.174;2022-12-11T07:03:58;1.20;99.90
38860;DHT22;24609;48.316;16.174;2022-12-11T07:06:25;1.20;99.90
38860;DHT22;24609;48.316;16.174;2022-12-11T07:08:52;1.20;99.90
38860;DHT22;24609;48.316;16.174;2022-12-11T07:11:19;1.20;99.90
38860;DHT22;24609;48.316;16.174;2022-12-11T07:13:45;1.20;99.90
38860;DHT22;24609;48.316;16.174;2022-12-11T07:16:12;1.20;99.90
38860;DHT22;24609;48.316;16.174;2022-12-11T07:18:40;1.20;99.90
38860;DHT22;24609;48.316;16.174;2022-12-11T07:21:07;1.20;1.00
38860;DHT22;24609;48.316;16.174;2022-12-11T07:23:34;1.20;99.90
38860;DHT22;24609;48.316;16.174;2022-12-11T07:26:04;1.20;99.90
38860;DHT22;24609;48.316;16.174;2022-12-11T07:28:30;1.30;99.90
38860;DHT22;24609;48.316;16.174;2022-12-11T07:30:55;1.20;99.90
38860;DHT22;24609;48.316;16.174;2022-12-11T07:33:21;1.30;99.90
38860;DHT22;24609;48.316;16.174;2022-12-11T07:35:47;1.30;99.90
38860;DHT22;24609;48.316;16.174;2022-12-11T07:38:12;1.30;99.90
38860;DHT22;24609;48.316;16.174;2022-12-11T07:40:38;1.30;99.90
38860;DHT22;24609;48.316;16.174;2022-12-11T07:43:04;1.40;1.00
38860;DHT22;24609;48.316;16.174;2022-12-11T07:45:29;1.40;99.90
38860;DHT22;24609;48.316;16.174;2022-12-11T07:47:55;1.50;99.90
38860;DHT22;24609;48.316;16.174;2022-12-11T07:50:21;1.60;99.90
38860;DHT22;24609;48.316;16.174;2022-12-11T07:52:47;1.60;99.90
38860;DHT22;24609;48.316;16.174;2022-12-11T07:55:12;1.70;99.90
38860;DHT22;24609;48.316;16.174;2022-12-11T07:57:39;1.70;1.00
38860;DHT22;24609;48.316;16.174;2022-12-11T08:00:05;1.70;99.90
38860;DHT22;24609;48.316;16.174;2022-12-11T08:02:31;1.80;1.00
38860;DHT22;24609;48.316;16.174;2022-12-11T08:04:57;1.80;1.00
38860;DHT22;24609;48.316;16.174;2022-12-11T08:07:22;1.80;99.90
38860;DHT22;24609;48.316;16.174;2022-12-11T08:09:48;1.90;1.00
38860;DHT22;24609;48.316;16.174;2022-12-11T08:12:13;1.90;99.90
38860;DHT22;24609;48.316;16.174;2022-12-11T08:14:39;2.00;99.90
38860;DHT22;24609;48.316;16.174;2022-12-11T08:17:05;2.00;1.00
38860;DHT22;24609;48.316;16.174;2022-12-11T08:19:30;2.10;1.00
38860;DHT22;24609;48.316;16.174;2022-12-11T08:21:56;2.10;99.90
38860;DHT22;24609;48.316;16.174;2022-12-11T08:24:22;2.30;99.90
38860;DHT22;24609;48.316;16.174;2022-12-11T08:26:47;2.20;99.90
38860;DHT22;24609;48.316;16.174;2022-12-11T08:29:13;2.30;99.90
38860;DHT22;24609;48.316;16.174;2022-12-11T08:31:40;2.30;99.90
38860;DHT22;24609;48.316;16.174;2022-12-11T08:34:06;2.40;58.70
38860;DHT22;24609;48.316;16.174;2022-12-11T08:36:31;2.40;1.00
38860;DHT22;24609;48.316;16.174;2022-12-11T08:38:57;2.30;1.00
38860;DHT22;24609;48.316;16.174;2022-12-11T08:41:25;2.30;1.00
38860;DHT22;24609;48.316;16.174;2022-12-11T08:43:52;2.30;1.00
38860;DHT22;24609;48.316;16.174;2022-12-11T08:46:23;2.40;1.00
38860;DHT22;24609;48.316;16.174;2022-12-11T08:48:50;2.40;1.00
38860;DHT22;24609;48.316;16.174;2022-12-11T08:51:19;2.30;1.00
38860;DHT22;24609;48.316;16.174;2022-12-11T08:53:45;2.20;1.00
38860;DHT22;24609;48.316;16.174;2022-12-11T08:56:16;2.10;1.00
38860;DHT22;24609;48.316;16.174;2022-12-11T08:58:42;2.10;1.00
38860;DHT22;24609;48.316;16.174;2022-12-11T09:01:11;2.00;1.00
38860;DHT22;24609;48.316;16.174;2022-12-11T09:03:37;1.90;1.00
38860;DHT22;24609;48.316;16.174;2022-12-11T09:06:11;1.80;1.00
38860;DHT22;24609;48.316;16.174;2022-12-11T09:08:37;1.90;1.00
38860;DHT22;24609;48.316;16.174;2022-12-11T09:11:05;2.70;1.00
38860;DHT22;24609;48.316;16.174;2022-12-11T09:13:31;3.10;99.90
38860;DHT22;24609;48.316;16.174;2022-12-11T09:15:57;3.70;99.90
38860;DHT22;24609;48.316;16.174;2022-12-11T09:18:23;3.50;99.90
38860;DHT22;24609;48.316;16.174;2022-12-11T09:21:06;2.90;99.90
38860;DHT22;24609;48.316;16.174;2022-12-11T09:23:32;2.50;99.90
38860;DHT22;24609;48.316;16.174;2022-12-11T09:25:58;2.40;99.90
38860;DHT22;24609;48.316;16.174;2022-12-11T09:28:24;2.70;99.90
38860;DHT22;24609;48.316;16.174;2022-12-11T09:30:50;2.50;99.90
38860;DHT22;24609;48.316;16.174;2022-12-11T09:33:16;2.30;99.90
38860;DHT22;24609;48.316;16.174;2022-12-11T09:35:42;3.30;99.90
38860;DHT22;24609;48.316;16.174;2022-12-11T09:38:08;5.10;53.60
38860;DHT22;24609;48.316;16.174;2022-12-11T09:40:39;5.70;1.00
38860;DHT22;24609;48.316;16.174;2022-12-11T09:43:30;4.90;1.00
38860;DHT22;24609;48.316;16.174;2022-12-11T09:46:00;5.00;1.00
38860;DHT22;24609;48.316;16.174;2022-12-11T09:48:27;4.50;99.90
38860;DHT22;24609;48.316;16.174;2022-12-11T09:50:56;3.40;99.90
38860;DHT22;24609;48.316;16.174;2022-12-11T09:53:28;3.80;99.90
38860;DHT22;24609;48.316;16.174;2022-12-11T09:55:55;4.10;99.90
38860;DHT22;24609;48.316;16.174;2022-12-11T10:01:02;6.30;99.90
38860;DHT22;24609;48.316;16.174;2022-12-11T10:14:22;5.40;99.90
38860;DHT22;24609;48.316;16.174;2022-12-11T10:16:58;5.10;99.90
38860;DHT22;24609;48.316;16.174;2022-12-11T10:19:29;4.40;99.90
38860;DHT22;24609;48.316;16.174;2022-12-11T10:21:56;4.50;99.90
38860;DHT22;24609;48.316;16.174;2022-12-11T10:26:54;3.80;99.90
38860;DHT22;24609;48.316;16.174;2022-12-11T10:29:20;3.50;99.90
38860;DHT22;24609;48.316;16.174;2022-12-11T10:31:56;3.50;99.90
38860;DHT22;24609;48.316;16.174;2022-12-11T10:34:33;3.40;99.90
38860;DHT22;24609;48.316;16.174;2022-12-11T10:37:00;3.20;99.90
38860;DHT22;24609;48.316;16.174;2022-12-11T10:39:26;3.00;99.90
38860;DHT22;24609;48.316;16.174;2022-12-11T10:41:54;3.00;99.90
38860;DHT22;24609;48.316;16.174;2022-12-11T10:44:29;3.30;99.90
38860;DHT22;24609;48.316;16.174;2022-12-11T10:47:11;3.50;99.90
38860;DHT22;24609;48.316;16.174;2022-12-11T10:49:41;3.50;99.90
38860;DHT22;24609;48.316;16.174;2022-12-11T10:52:18;3.50;99.90
38860;DHT22;24609;48.316;16.174;2022-12-11T10:54:45;3.50;99.90
38860;DHT22;24609;48.316;16.174;2022-12-11T10:57:14;3.30;99.90
38860;DHT22;24609;48.316;16.174;2022-12-11T10:59:44;3.30;99.90
38860;DHT22;24609;48.316;16.174;2022-12-11T11:02:23;3.20;99.90
38860;DHT22;24609;48.316;16.174;2022-12-11T11:04:50;3.10;99.90
38860;DHT22;24609;48.316;16.174;2022-12-11T11:10:01;3.10;99.90
38860;DHT22;24609;48.316;16.174;2022-12-11T11:12:28;3.00;99.90
38860;DHT22;24609;48.316;16.174;2022-12-11T11:15:05;3.20;99.90
38860;DHT22;24609;48.316;16.174;2022-12-11T11:17:31;3.20;99.90
38860;DHT22;24609;48.316;16.174;2022-12-11T11:20:05;3.20;99.90
38860;DHT22;24609;48.316;16.174;2022-12-11T11:22:40;3.30;99.90
38860;DHT22;24609;48.316;16.174;2022-12-11T11:25:19;3.40;99.90
38860;DHT22;24609;48.316;16.174;2022-12-11T11:27:57;3.60;99.90
38860;DHT22;24609;48.316;16.174;2022-12-11T11:30:25;4.00;99.90
38860;DHT22;24609;48.316;16.174;2022-12-11T11:32:57;4.10;99.90
38860;DHT22;24609;48.316;16.174;2022-12-11T11:35:27;3.60;99.90
38860;DHT22;24609;48.316;16.174;2022-12-11T11:38:02;5.10;99.90
38860;DHT22;24609;48.316;16.174;2022-12-11T11:40:32;6.20;99.90
38860;DHT22;24609;48.316;16.174;2022-12-11T11:49:05;4.20;99.90
38860;DHT22;24609;48.316;16.174;2022-12-11T11:56:53;3.40;99.90
38860;DHT22;24609;48.316;16.174;2022-12-11T12:01:45;3.00;99.90
38860;DHT22;24609;48.316;16.174;2022-12-11T12:04:12;3.10;99.90
38860;DHT22;24609;48.316;16.174;2022-12-11T12:06:59;3.30;99.90
38860;DHT22;24609;48.316;16.174;2022-12-11T12:15:15;3.00;99.90
38860;DHT22;24609;48.316;16.174;2022-12-11T12:17:52;2.80;99.90
38860;DHT22;24609;48.316;16.174;2022-12-11T12:28:29;2.60;99.90
38860;DHT22;24609;48.316;16.174;2022-12-11T12:39:02;2.00;99.90
38860;DHT22;24609;48.316;16.174;2022-12-11T12:41:45;1.90;99.90
38860;DHT22;24609;48.316;16.174;2022-12-11T12:44:17;2.20;99.90
38860;DHT22;24609;48.316;16.174;2022-12-11T12:47:11;2.30;99.90
38860;DHT22;24609;48.316;16.174;2022-12-11T12:49:43;2.60;99.90
38860;DHT22;24609;48.316;16.174;2022-12-11T12:52:30;2.70;99.90
38860;DHT22;24609;48.316;16.174;2022-12-11T12:54:58;2.70;99.90
38860;DHT22;24609;48.316;16.174;2022-12-11T13:00:09;2.60;99.90
38860;DHT22;24609;48.316;16.174;2022-12-11T13:02:45;2.50;99.90
38860;DHT22;24609;48.316;16.174;2022-12-11T13:05:27;2.20;99.90
38860;DHT22;24609;48.316;16.174;2022-12-11T13:08:03;2.10;99.90
38860;DHT22;24609;48.316;16.174;2022-12-11T13:10:35;2.00;99.90
38860;DHT22;24609;48.316;16.174;2022-12-11T13:13:02;1.90;99.90
38860;DHT22;24609;48.316;16.174;2022-12-11T13:15:30;1.70;99.90
38860;DHT22;24609;48.316;16.174;2022-12-11T13:17:58;1.70;99.90
38860;DHT22;24609;48.316;16.174;2022-12-11T13:20:27;1.70;99.90
38860;DHT22;24609;48.316;16.174;2022-12-11T13:25:44;1.70;99.90
38860;DHT22;24609;48.316;16.174;2022-12-11T13:34:21;1.50;99.90
38860;DHT22;24609;48.316;16.174;2022-12-11T13:36:49;1.40;99.90
38860;DHT22;24609;48.316;16.174;2022-12-11T13:41:46;1.50;99.90
38860;DHT22;24609;48.316;16.174;2022-12-11T13:44:20;1.50;99.90
38860;DHT22;24609;48.316;16.174;2022-12-11T13:46:48;1.50;99.90
38860;DHT22;24609;48.316;16.174;2022-12-11T13:49:23;1.50;99.90
38860;DHT22;24609;48.316;16.174;2022-12-11T13:51:56;1.50;99.90
38860;DHT22;24609;48.316;16.174;2022-12-11T13:54:22;1.60;99.90
38860;DHT22;24609;48.316;16.174;2022-12-11T13:59:24;1.50;99.90
38860;DHT22;24609;48.316;16.174;2022-12-11T14:01:53;1.30;99.90
38860;DHT22;24609;48.316;16.174;2022-12-11T14:04:21;1.30;99.90
38860;DHT22;24609;48.316;16.174;2022-12-11T14:06:48;1.20;99.90
38860;DHT22;24609;48.316;16.174;2022-12-11T14:09:20;1.10;99.90
38860;DHT22;24609;48.316;16.174;2022-12-11T14:11:46;1.20;99.90
38860;DHT22;24609;48.316;16.174;2022-12-11T14:14:26;1.20;99.90
38860;DHT22;24609;48.316;16.174;2022-12-11T14:16:53;1.10;99.90
38860;DHT22;24609;48.316;16.174;2022-12-11T14:19:20;1.10;99.90
38860;DHT22;24609;48.316;16.174;2022-12-11T14:22:01;1.00;99.90
38860;DHT22;24609;48.316;16.174;2022-12-11T14:24:28;1.00;99.90
38860;DHT22;24609;48.316;16.174;2022-12-11T14:26:54;0.90;99.90
38860;DHT22;24609;48.316;16.174;2022-12-11T14:29:28;0.90;99.90
38860;DHT22;24609;48.316;16.174;2022-12-11T14:31:55;0.90;99.90
38860;DHT22;24609;48.316;16.174;2022-12-11T14:34:44;0.90;99.90
38860;DHT22;24609;48.316;16.174;2022-12-11T14:37:13;0.80;99.90
38860;DHT22;24609;48.316;16.174;2022-12-11T14:39:54;0.80;99.90
38860;DHT22;24609;48.316;16.174;2022-12-11T14:42:25;0.80;99.90
38860;DHT22;24609;48.316;16.174;2022-12-11T14:47:44;0.70;99.90
38860;DHT22;24609;48.316;16.174;2022-12-11T14:53:00;0.70;99.90
38860;DHT22;24609;48.316;16.174;2022-12-11T14:55:29;0.70;99.90
38860;DHT22;24609;48.316;16.174;2022-12-11T14:57:59;0.70;99.90
38860;DHT22;24609;48.316;16.174;2022-12-11T15:00:28;0.60;99.90
38860;DHT22;24609;48.316;16.174;2022-12-11T15:03:00;0.60;99.90
38860;DHT22;24609;48.316;16.174;2022-12-11T15:05:26;0.60;99.90
38860;DHT22;24609;48.316;16.174;2022-12-11T15:13:27;0.60;99.90
38860;DHT22;24609;48.316;16.174;2022-12-11T15:15:54;0.60;99.90
38860;DHT22;24609;48.316;16.174;2022-12-11T15:18:23;0.50;99.90
38860;DHT22;24609;48.316;16.174;2022-12-11T15:20:55;0.60;99.90
38860;DHT22;24609;48.316;16.174;2022-12-11T15:23:21;0.50;99.90
38860;DHT22;24609;48.316;16.174;2022-12-11T15:26:01;0.50;99.90
38860;DHT22;24609;48.316;16.174;2022-12-11T15:28:33;0.50;99.90
38860;DHT22;24609;48.316;16.174;2022-12-11T15:31:02;0.50;99.90
38860;DHT22;24609;48.316;16.174;2022-12-11T15:33:28;0.50;1.00
38860;DHT22;24609;48.316;16.174;2022-12-11T15:36:03;0.50;1.00
38860;DHT22;24609;48.316;16.174;2022-12-11T15:38:30;0.50;1.00
38860;DHT22;24609;48.316;16.174;2022-12-11T15:40:58;0.50;1.00
38860;DHT22;24609;48.316;16.174;2022-12-11T15:43:24;0.50;1.00
38860;DHT22;24609;48.316;16.174;2022-12-11T15:45:50;0.50;1.00
38860;DHT22;24609;48.316;16.174;2022-12-11T15:48:16;0.50;1.00
38860;DHT22;24609;48.316;16.174;2022-12-11T15:50:42;0.50;1.00
38860;DHT22;24609;48.316;16.174;2022-12-11T15:53:08;0.50;1.00
38860;DHT22;24609;48.316;16.174;2022-12-11T15:55:33;0.50;1.00
38860;DHT22;24609;48.316;16.174;2022-12-11T15:58:03;0.50;1.00
38860;DHT22;24609;48.316;16.174;2022-12-11T16:00:30;0.50;1.00
38860;DHT22;24609;48.316;16.174;2022-12-11T16:02:57;0.40;1.00
38860;DHT22;24609;48.316;16.174;2022-12-11T16:05:23;0.40;1.00
38860;DHT22;24609;48.316;16.174;2022-12-11T16:07:49;0.40;48.10
38860;DHT22;24609;48.316;16.174;2022-12-11T16:10:20;0.40;99.90
38860;DHT22;24609;48.316;16.174;2022-12-11T16:12:46;0.40;99.90
38860;DHT22;24609;48.316;16.174;2022-12-11T16:15:13;0.40;99.90
38860;DHT22;24609;48.316;16.174;2022-12-11T16:17:39;0.40;99.90
38860;DHT22;24609;48.316;16.174;2022-12-11T16:20:06;0.40;1.00
38860;DHT22;24609;48.316;16.174;2022-12-11T16:22:32;0.40;1.00
38860;DHT22;24609;48.316;16.174;2022-12-11T16:24:58;0.40;99.90
38860;DHT22;24609;48.316;16.174;2022-12-11T16:27:24;0.40;40.90
38860;DHT22;24609;48.316;16.174;2022-12-11T16:29:50;0.40;1.00
38860;DHT22;24609;48.316;16.174;2022-12-11T16:32:16;0.40;1.00
38860;DHT22;24609;48.316;16.174;2022-12-11T16:34:41;0.40;1.00
38860;DHT22;24609;48.316;16.174;2022-12-11T16:37:08;0.40;1.00
38860;DHT22;24609;48.316;16.174;2022-12-11T16:39:36;0.40;99.90
38860;DHT22;24609;48.316;16.174;2022-12-11T16:42:03;0.40;99.90
38860;DHT22;24609;48.316;16.174;2022-12-11T16:44:29;0.40;99.90
38860;DHT22;24609;48.316;16.174;2022-12-11T16:46:54;0.40;99.90
38860;DHT22;24609;48.316;16.174;2022-12-11T16:49:21;0.40;99.90
38860;DHT22;24609;48.316;16.174;2022-12-11T16:51:47;0.40;99.90
38860;DHT22;24609;48.316;16.174;2022-12-11T16:54:16;0.40;1.00
38860;DHT22;24609;48.316;16.174;2022-12-11T16:56:42;0.40;1.00
38860;DHT22;24609;48.316;16.174;2022-12-11T16:59:08;0.40;1.00
38860;DHT22;24609;48.316;16.174;2022-12-11T17:01:34;0.40;1.00
38860;DHT22;24609;48.316;16.174;2022-12-11T17:03:59;0.40;1.00
38860;DHT22;24609;48.316;16.174;2022-12-11T17:06:25;0.40;1.00
38860;DHT22;24609;48.316;16.174;2022-12-11T17:08:51;0.40;99.90
38860;DHT22;24609;48.316;16.174;2022-12-11T17:11:20;0.40;99.90
38860;DHT22;24609;48.316;16.174;2022-12-11T17:13:56;0.40;99.90
38860;DHT22;24609;48.316;16.174;2022-12-11T17:16:23;0.40;99.90
38860;DHT22;24609;48.316;16.174;2022-12-11T17:18:50;0.40;99.90
38860;DHT22;24609;48.316;16.174;2022-12-11T17:21:18;0.30;99.90
38860;DHT22;24609;48.316;16.174;2022-12-11T17:23:44;0.20;40.50
38860;DHT22;24609;48.316;16.174;2022-12-11T17:26:10;0.20;99.90